Phumi Bos, Cambodia

9:19 PM ICT on December 06, 2016 (GMT +0700)
Siem Reap | | Change Station

Elev 49 ft 13.37 °N, 103.85 °E | Updated 19 minutes ago

Scattered Clouds
Scattered Clouds
81 °F
Feels Like 85 °F
N
5
Wind Variable Wind from North

Today
High -- | Low -- °F
--% Chance of Precip.
Yesterday
High -- | Low -- °F
Precip. -- in
Pressure 29.86 in
Visibility 5.0 miles
Clouds Scattered Clouds 1500 ft
Scattered Clouds 5000 ft
Heat Index 85 °F
Dew Point 72 °F
Humidity 74%
Rainfall 0.00 in
Snow Depth Not available.
6:13 AM 5:35 PM
Waxing Crescent, 42% visible
METAR VDSR 061400Z 01004KT 350V050 8000 SCT015 SCT050 27/22 Q1011
Pressure 29.86 in
Visibility 5.0 miles
Clouds Scattered Clouds 1500 ft
Scattered Clouds 5000 ft
Heat Index 85 °F
Dew Point 72 °F
Humidity 74%
Rainfall 0.00 in
Snow Depth Not available.
6:13 AM 5:35 PM
Waxing Crescent, 42% visible
METAR VDSR 061400Z 01004KT 350V050 8000 SCT015 SCT050 27/22 Q1011

10-Day Weather Forecast

No radar image for this location.
×

Almanac

Astronomy

Dec. 06, 2016 Rise Set
Actual Time
Civil Twilight
Nautical Twilight
Astronomical Twilight
Moon
Length of Visible Light
Length of Day
Tomorrow will be .
, % of the Moon is Illuminated

Today's Extremes

Country Highs Country Lows

Community

WunderPhotos

Upload Photos

1,955,949 photos uploaded!

WunderBlog® & News

Nearby

Air Quality

  Air Quality AQ Index Pollutant
Not available.

Snow Depth

Station Depth Elevation

Earthquake Activity

City Distance Mag. Time & Date
Minimum magnitude displayed is 2.5.

Coastal Water Temperatures

Place Temperature

Stations

Nearby Weather Stations

Station Location Temp. Windchill Dew Point Humidity Wind Precip. Elev Updated Type